sensor_id;sensor_type;location;lat;lon;timestamp;P1;durP1;ratioP1;P2;durP2;ratioP2
42084;SDS011;27746;52.228;20.890;2023-04-01T00:00:50;23.50;;;15.80;;
42084;SDS011;27746;52.228;20.890;2023-04-01T00:03:18;25.77;;;15.40;;
42084;SDS011;27746;52.228;20.890;2023-04-01T00:05:45;25.08;;;15.20;;
42084;SDS011;27746;52.228;20.890;2023-04-01T00:08:13;26.70;;;17.10;;
42084;SDS011;27746;52.228;20.890;2023-04-01T00:10:40;27.95;;;16.60;;
42084;SDS011;27746;52.228;20.890;2023-04-01T00:13:07;25.92;;;16.63;;
42084;SDS011;27746;52.228;20.890;2023-04-01T00:15:35;26.25;;;16.80;;
42084;SDS011;27746;52.228;20.890;2023-04-01T00:18:03;28.90;;;16.83;;
42084;SDS011;27746;52.228;20.890;2023-04-01T00:20:31;26.52;;;17.13;;
42084;SDS011;27746;52.228;20.890;2023-04-01T00:22:58;30.17;;;16.92;;
42084;SDS011;27746;52.228;20.890;2023-04-01T00:25:28;28.13;;;16.92;;
42084;SDS011;27746;52.228;20.890;2023-04-01T00:27:55;27.95;;;16.48;;
42084;SDS011;27746;52.228;20.890;2023-04-01T00:30:22;26.38;;;17.00;;
42084;SDS011;27746;52.228;20.890;2023-04-01T00:32:52;29.98;;;17.10;;
42084;SDS011;27746;52.228;20.890;2023-04-01T00:35:20;26.75;;;15.90;;
42084;SDS011;27746;52.228;20.890;2023-04-01T00:37:47;27.77;;;17.33;;
42084;SDS011;27746;52.228;20.890;2023-04-01T00:40:21;28.98;;;17.55;;
42084;SDS011;27746;52.228;20.890;2023-04-01T00:42:51;26.08;;;15.52;;
42084;SDS011;27746;52.228;20.890;2023-04-01T00:48:07;26.48;;;16.02;;
42084;SDS011;27746;52.228;20.890;2023-04-01T00:50:37;24.67;;;15.90;;
42084;SDS011;27746;52.228;20.890;2023-04-01T00:53:06;25.05;;;15.52;;
42084;SDS011;27746;52.228;20.890;2023-04-01T00:55:35;31.05;;;16.08;;
42084;SDS011;27746;52.228;20.890;2023-04-01T00:58:05;34.38;;;17.02;;
42084;SDS011;27746;52.228;20.890;2023-04-01T01:00:35;28.23;;;16.85;;
42084;SDS011;27746;52.228;20.890;2023-04-01T01:03:03;29.45;;;16.10;;
42084;SDS011;27746;52.228;20.890;2023-04-01T01:05:35;26.48;;;16.42;;
42084;SDS011;27746;52.228;20.890;2023-04-01T01:08:13;24.80;;;16.30;;
42084;SDS011;27746;52.228;20.890;2023-04-01T01:10:46;29.23;;;17.63;;
42084;SDS011;27746;52.228;20.890;2023-04-01T01:13:16;29.20;;;17.20;;
42084;SDS011;27746;52.228;20.890;2023-04-01T01:15:49;29.55;;;17.45;;
42084;SDS011;27746;52.228;20.890;2023-04-01T01:18:24;28.83;;;17.88;;
42084;SDS011;27746;52.228;20.890;2023-04-01T01:21:14;29.38;;;17.17;;
42084;SDS011;27746;52.228;20.890;2023-04-01T01:26:58;30.02;;;18.48;;
42084;SDS011;27746;52.228;20.890;2023-04-01T01:32:40;30.40;;;18.25;;
42084;SDS011;27746;52.228;20.890;2023-04-01T01:35:20;33.15;;;19.15;;
42084;SDS011;27746;52.228;20.890;2023-04-01T01:37:51;35.05;;;20.67;;
42084;SDS011;27746;52.228;20.890;2023-04-01T01:40:21;41.67;;;25.63;;
42084;SDS011;27746;52.228;20.890;2023-04-01T01:42:52;47.33;;;25.05;;
42084;SDS011;27746;52.228;20.890;2023-04-01T01:45:23;37.83;;;23.13;;
42084;SDS011;27746;52.228;20.890;2023-04-01T01:47:52;38.92;;;22.52;;
42084;SDS011;27746;52.228;20.890;2023-04-01T01:50:22;37.50;;;21.35;;
42084;SDS011;27746;52.228;20.890;2023-04-01T01:52:59;34.35;;;20.55;;
42084;SDS011;27746;52.228;20.890;2023-04-01T01:55:27;33.65;;;21.08;;
42084;SDS011;27746;52.228;20.890;2023-04-01T01:57:56;37.50;;;21.58;;
42084;SDS011;27746;52.228;20.890;2023-04-01T02:00:27;35.33;;;20.48;;
42084;SDS011;27746;52.228;20.890;2023-04-01T02:02:55;32.97;;;20.83;;
42084;SDS011;27746;52.228;20.890;2023-04-01T02:05:24;32.25;;;19.70;;
42084;SDS011;27746;52.228;20.890;2023-04-01T02:07:55;32.58;;;20.48;;
42084;SDS011;27746;52.228;20.890;2023-04-01T02:10:27;33.70;;;20.10;;
42084;SDS011;27746;52.228;20.890;2023-04-01T02:12:59;35.65;;;21.15;;
42084;SDS011;27746;52.228;20.890;2023-04-01T02:15:31;31.15;;;20.10;;
42084;SDS011;27746;52.228;20.890;2023-04-01T02:18:01;34.63;;;20.60;;
42084;SDS011;27746;52.228;20.890;2023-04-01T02:20:31;33.03;;;20.50;;
42084;SDS011;27746;52.228;20.890;2023-04-01T02:22:58;34.28;;;20.67;;
42084;SDS011;27746;52.228;20.890;2023-04-01T02:25:26;31.08;;;19.65;;
42084;SDS011;27746;52.228;20.890;2023-04-01T02:27:55;36.67;;;21.85;;
42084;SDS011;27746;52.228;20.890;2023-04-01T02:30:25;36.38;;;21.25;;
42084;SDS011;27746;52.228;20.890;2023-04-01T02:32:53;33.65;;;21.08;;
42084;SDS011;27746;52.228;20.890;2023-04-01T02:35:22;33.28;;;21.23;;
42084;SDS011;27746;52.228;20.890;2023-04-01T02:37:51;32.63;;;20.02;;
42084;SDS011;27746;52.228;20.890;2023-04-01T02:40:20;37.40;;;20.88;;
42084;SDS011;27746;52.228;20.890;2023-04-01T02:42:47;36.17;;;21.27;;
42084;SDS011;27746;52.228;20.890;2023-04-01T02:45:14;37.42;;;22.08;;
42084;SDS011;27746;52.228;20.890;2023-04-01T02:47:41;39.92;;;22.50;;
42084;SDS011;27746;52.228;20.890;2023-04-01T02:50:09;37.33;;;22.90;;
42084;SDS011;27746;52.228;20.890;2023-04-01T02:52:36;37.28;;;21.20;;
42084;SDS011;27746;52.228;20.890;2023-04-01T02:55:05;41.22;;;21.65;;
42084;SDS011;27746;52.228;20.890;2023-04-01T02:57:32;35.60;;;21.45;;
42084;SDS011;27746;52.228;20.890;2023-04-01T02:59:59;33.50;;;21.05;;
42084;SDS011;27746;52.228;20.890;2023-04-01T03:02:26;33.92;;;22.13;;
42084;SDS011;27746;52.228;20.890;2023-04-01T03:04:53;38.33;;;22.92;;
42084;SDS011;27746;52.228;20.890;2023-04-01T03:07:20;38.05;;;21.52;;
42084;SDS011;27746;52.228;20.890;2023-04-01T03:09:47;37.60;;;22.13;;
42084;SDS011;27746;52.228;20.890;2023-04-01T03:12:15;35.03;;;21.75;;
42084;SDS011;27746;52.228;20.890;2023-04-01T03:14:42;34.20;;;20.52;;
42084;SDS011;27746;52.228;20.890;2023-04-01T03:17:09;40.03;;;21.70;;
42084;SDS011;27746;52.228;20.890;2023-04-01T03:19:35;35.20;;;20.95;;
42084;SDS011;27746;52.228;20.890;2023-04-01T03:22:03;33.92;;;21.80;;
42084;SDS011;27746;52.228;20.890;2023-04-01T03:24:30;35.58;;;20.77;;
42084;SDS011;27746;52.228;20.890;2023-04-01T03:26:56;33.13;;;20.15;;
42084;SDS011;27746;52.228;20.890;2023-04-01T03:29:25;35.70;;;21.15;;
42084;SDS011;27746;52.228;20.890;2023-04-01T03:31:51;35.90;;;20.55;;
42084;SDS011;27746;52.228;20.890;2023-04-01T03:34:18;31.30;;;18.83;;
42084;SDS011;27746;52.228;20.890;2023-04-01T03:36:45;33.10;;;19.27;;
42084;SDS011;27746;52.228;20.890;2023-04-01T03:39:12;29.73;;;19.17;;
42084;SDS011;27746;52.228;20.890;2023-04-01T03:41:43;34.30;;;19.02;;
42084;SDS011;27746;52.228;20.890;2023-04-01T03:44:10;33.28;;;19.10;;
42084;SDS011;27746;52.228;20.890;2023-04-01T03:46:39;32.33;;;19.13;;
42084;SDS011;27746;52.228;20.890;2023-04-01T03:49:06;29.35;;;18.58;;
42084;SDS011;27746;52.228;20.890;2023-04-01T03:51:36;34.30;;;18.65;;
42084;SDS011;27746;52.228;20.890;2023-04-01T03:54:03;28.23;;;17.52;;
42084;SDS011;27746;52.228;20.890;2023-04-01T03:56:30;32.47;;;18.50;;
42084;SDS011;27746;52.228;20.890;2023-04-01T03:58:58;35.15;;;19.60;;
42084;SDS011;27746;52.228;20.890;2023-04-01T04:01:25;30.35;;;18.70;;
42084;SDS011;27746;52.228;20.890;2023-04-01T04:03:54;30.35;;;20.00;;
42084;SDS011;27746;52.228;20.890;2023-04-01T04:06:21;31.77;;;20.55;;
42084;SDS011;27746;52.228;20.890;2023-04-01T04:08:49;28.08;;;18.73;;
42084;SDS011;27746;52.228;20.890;2023-04-01T04:11:16;37.95;;;21.45;;
42084;SDS011;27746;52.228;20.890;2023-04-01T04:13:45;32.53;;;19.52;;
42084;SDS011;27746;52.228;20.890;2023-04-01T04:16:12;29.00;;;18.40;;
42084;SDS011;27746;52.228;20.890;2023-04-01T04:18:40;32.88;;;18.52;;
42084;SDS011;27746;52.228;20.890;2023-04-01T04:21:10;31.98;;;18.50;;
42084;SDS011;27746;52.228;20.890;2023-04-01T04:23:39;25.90;;;16.45;;
42084;SDS011;27746;52.228;20.890;2023-04-01T04:26:06;26.77;;;16.52;;
42084;SDS011;27746;52.228;20.890;2023-04-01T04:28:34;23.58;;;15.75;;
42084;SDS011;27746;52.228;20.890;2023-04-01T04:31:02;22.85;;;14.38;;
42084;SDS011;27746;52.228;20.890;2023-04-01T04:33:31;23.63;;;14.55;;
42084;SDS011;27746;52.228;20.890;2023-04-01T04:35:58;24.70;;;13.60;;
42084;SDS011;27746;52.228;20.890;2023-04-01T04:38:27;23.88;;;14.38;;
42084;SDS011;27746;52.228;20.890;2023-04-01T04:40:54;23.00;;;13.40;;
42084;SDS011;27746;52.228;20.890;2023-04-01T04:43:21;24.40;;;13.45;;
42084;SDS011;27746;52.228;20.890;2023-04-01T04:45:49;22.67;;;13.57;;
42084;SDS011;27746;52.228;20.890;2023-04-01T04:48:16;21.17;;;12.65;;
42084;SDS011;27746;52.228;20.890;2023-04-01T04:50:45;19.63;;;11.98;;
42084;SDS011;27746;52.228;20.890;2023-04-01T04:53:13;19.95;;;12.13;;
42084;SDS011;27746;52.228;20.890;2023-04-01T04:55:46;19.35;;;11.77;;
42084;SDS011;27746;52.228;20.890;2023-04-01T04:58:13;21.38;;;12.52;;
42084;SDS011;27746;52.228;20.890;2023-04-01T05:00:40;19.27;;;11.10;;
42084;SDS011;27746;52.228;20.890;2023-04-01T05:03:08;16.38;;;10.85;;
42084;SDS011;27746;52.228;20.890;2023-04-01T05:05:35;17.73;;;10.93;;
42084;SDS011;27746;52.228;20.890;2023-04-01T05:08:02;18.73;;;11.30;;
42084;SDS011;27746;52.228;20.890;2023-04-01T05:10:29;15.55;;;10.52;;
42084;SDS011;27746;52.228;20.890;2023-04-01T05:12:58;16.63;;;10.77;;
42084;SDS011;27746;52.228;20.890;2023-04-01T05:15:25;16.63;;;9.93;;
42084;SDS011;27746;52.228;20.890;2023-04-01T05:17:52;16.85;;;9.98;;
42084;SDS011;27746;52.228;20.890;2023-04-01T05:20:19;16.00;;;9.65;;
42084;SDS011;27746;52.228;20.890;2023-04-01T05:22:47;18.80;;;10.15;;
42084;SDS011;27746;52.228;20.890;2023-04-01T05:25:14;17.25;;;9.27;;
42084;SDS011;27746;52.228;20.890;2023-04-01T05:27:42;16.88;;;9.40;;
42084;SDS011;27746;52.228;20.890;2023-04-01T05:30:11;15.43;;;9.82;;
42084;SDS011;27746;52.228;20.890;2023-04-01T05:32:38;17.33;;;9.98;;
42084;SDS011;27746;52.228;20.890;2023-04-01T05:35:05;18.42;;;10.00;;
42084;SDS011;27746;52.228;20.890;2023-04-01T05:37:33;16.08;;;9.57;;
42084;SDS011;27746;52.228;20.890;2023-04-01T05:40:00;16.58;;;9.65;;
42084;SDS011;27746;52.228;20.890;2023-04-01T05:42:27;16.02;;;8.95;;
42084;SDS011;27746;52.228;20.890;2023-04-01T05:44:54;16.02;;;9.25;;
42084;SDS011;27746;52.228;20.890;2023-04-01T05:47:23;16.60;;;8.90;;
42084;SDS011;27746;52.228;20.890;2023-04-01T05:49:49;13.60;;;8.38;;
42084;SDS011;27746;52.228;20.890;2023-04-01T05:52:16;14.40;;;8.88;;
42084;SDS011;27746;52.228;20.890;2023-04-01T05:54:43;13.20;;;8.43;;
42084;SDS011;27746;52.228;20.890;2023-04-01T05:57:10;13.07;;;8.38;;
42084;SDS011;27746;52.228;20.890;2023-04-01T05:59:37;15.20;;;8.60;;
42084;SDS011;27746;52.228;20.890;2023-04-01T06:02:15;13.38;;;8.43;;
42084;SDS011;27746;52.228;20.890;2023-04-01T06:04:44;14.68;;;9.48;;
42084;SDS011;27746;52.228;20.890;2023-04-01T06:07:12;20.30;;;10.82;;
42084;SDS011;27746;52.228;20.890;2023-04-01T06:09:40;13.98;;;8.75;;
42084;SDS011;27746;52.228;20.890;2023-04-01T06:18:08;16.17;;;10.37;;
42084;SDS011;27746;52.228;20.890;2023-04-01T06:20:49;14.10;;;9.82;;
42084;SDS011;27746;52.228;20.890;2023-04-01T06:23:26;18.80;;;10.43;;
42084;SDS011;27746;52.228;20.890;2023-04-01T06:26:07;16.15;;;9.85;;
42084;SDS011;27746;52.228;20.890;2023-04-01T06:28:55;17.38;;;10.43;;
42084;SDS011;27746;52.228;20.890;2023-04-01T06:31:54;18.10;;;11.93;;
42084;SDS011;27746;52.228;20.890;2023-04-01T06:34:49;17.80;;;10.10;;
42084;SDS011;27746;52.228;20.890;2023-04-01T06:37:38;18.27;;;10.73;;
42084;SDS011;27746;52.228;20.890;2023-04-01T06:43:33;17.02;;;9.63;;
42084;SDS011;27746;52.228;20.890;2023-04-01T06:46:12;17.25;;;8.75;;
42084;SDS011;27746;52.228;20.890;2023-04-01T06:48:51;12.90;;;7.28;;
42084;SDS011;27746;52.228;20.890;2023-04-01T06:51:30;13.82;;;7.30;;
42084;SDS011;27746;52.228;20.890;2023-04-01T06:54:08;11.18;;;6.45;;
42084;SDS011;27746;52.228;20.890;2023-04-01T06:56:40;11.77;;;6.60;;
42084;SDS011;27746;52.228;20.890;2023-04-01T06:59:12;11.50;;;7.07;;
42084;SDS011;27746;52.228;20.890;2023-04-01T07:01:45;16.83;;;10.10;;
42084;SDS011;27746;52.228;20.890;2023-04-01T07:04:16;19.42;;;12.35;;
42084;SDS011;27746;52.228;20.890;2023-04-01T07:06:47;20.15;;;14.13;;
42084;SDS011;27746;52.228;20.890;2023-04-01T07:09:19;20.30;;;13.23;;
42084;SDS011;27746;52.228;20.890;2023-04-01T07:11:48;24.98;;;15.52;;
42084;SDS011;27746;52.228;20.890;2023-04-01T07:14:20;24.52;;;15.60;;
42084;SDS011;27746;52.228;20.890;2023-04-01T07:16:51;28.15;;;18.02;;
42084;SDS011;27746;52.228;20.890;2023-04-01T07:19:24;32.38;;;19.75;;
42084;SDS011;27746;52.228;20.890;2023-04-01T07:22:01;32.72;;;19.42;;
42084;SDS011;27746;52.228;20.890;2023-04-01T07:24:33;26.00;;;17.77;;
42084;SDS011;27746;52.228;20.890;2023-04-01T07:27:02;29.58;;;18.98;;
42084;SDS011;27746;52.228;20.890;2023-04-01T07:29:31;32.72;;;20.42;;
42084;SDS011;27746;52.228;20.890;2023-04-01T07:32:05;33.20;;;18.33;;
42084;SDS011;27746;52.228;20.890;2023-04-01T07:34:41;36.85;;;19.45;;
42084;SDS011;27746;52.228;20.890;2023-04-01T07:37:17;30.60;;;17.75;;
42084;SDS011;27746;52.228;20.890;2023-04-01T07:39:54;32.45;;;18.45;;
42084;SDS011;27746;52.228;20.890;2023-04-01T07:42:30;30.02;;;18.52;;
42084;SDS011;27746;52.228;20.890;2023-04-01T07:45:05;28.65;;;18.05;;
42084;SDS011;27746;52.228;20.890;2023-04-01T07:47:45;28.52;;;19.30;;
42084;SDS011;27746;52.228;20.890;2023-04-01T07:50:25;29.95;;;19.08;;
42084;SDS011;27746;52.228;20.890;2023-04-01T07:52:56;28.42;;;17.83;;
42084;SDS011;27746;52.228;20.890;2023-04-01T07:55:33;30.83;;;17.65;;
42084;SDS011;27746;52.228;20.890;2023-04-01T07:58:07;27.67;;;17.35;;
42084;SDS011;27746;52.228;20.890;2023-04-01T08:00:42;27.80;;;17.58;;
42084;SDS011;27746;52.228;20.890;2023-04-01T08:03:27;29.58;;;18.90;;
42084;SDS011;27746;52.228;20.890;2023-04-01T08:06:00;27.38;;;17.27;;
42084;SDS011;27746;52.228;20.890;2023-04-01T08:08:33;26.85;;;17.55;;
42084;SDS011;27746;52.228;20.890;2023-04-01T08:11:13;29.73;;;17.33;;
42084;SDS011;27746;52.228;20.890;2023-04-01T08:13:50;27.95;;;16.60;;
42084;SDS011;27746;52.228;20.890;2023-04-01T08:16:26;25.48;;;16.65;;
42084;SDS011;27746;52.228;20.890;2023-04-01T08:18:59;26.90;;;16.95;;
42084;SDS011;27746;52.228;20.890;2023-04-01T08:21:38;23.55;;;15.27;;
42084;SDS011;27746;52.228;20.890;2023-04-01T08:24:11;21.20;;;14.07;;
42084;SDS011;27746;52.228;20.890;2023-04-01T08:26:48;17.85;;;11.55;;
42084;SDS011;27746;52.228;20.890;2023-04-01T08:29:20;18.20;;;12.13;;
42084;SDS011;27746;52.228;20.890;2023-04-01T08:31:51;17.83;;;10.57;;
42084;SDS011;27746;52.228;20.890;2023-04-01T08:34:23;15.50;;;9.85;;
42084;SDS011;27746;52.228;20.890;2023-04-01T08:36:57;13.55;;;9.75;;
42084;SDS011;27746;52.228;20.890;2023-04-01T08:39:29;12.48;;;8.65;;
42084;SDS011;27746;52.228;20.890;2023-04-01T08:45:21;12.63;;;7.40;;
42084;SDS011;27746;52.228;20.890;2023-04-01T08:48:11;9.32;;;6.63;;
42084;SDS011;27746;52.228;20.890;2023-04-01T08:51:10;11.15;;;6.85;;
42084;SDS011;27746;52.228;20.890;2023-04-01T08:54:08;12.53;;;7.30;;
42084;SDS011;27746;52.228;20.890;2023-04-01T08:56:59;14.45;;;9.82;;
42084;SDS011;27746;52.228;20.890;2023-04-01T08:59:37;16.15;;;10.57;;
42084;SDS011;27746;52.228;20.890;2023-04-01T09:02:22;18.55;;;11.73;;
42084;SDS011;27746;52.228;20.890;2023-04-01T09:07:55;15.82;;;11.43;;
42084;SDS011;27746;52.228;20.890;2023-04-01T09:10:36;18.73;;;11.13;;
42084;SDS011;27746;52.228;20.890;2023-04-01T09:13:20;15.40;;;10.52;;
42084;SDS011;27746;52.228;20.890;2023-04-01T09:16:04;13.85;;;8.98;;
42084;SDS011;27746;52.228;20.890;2023-04-01T09:21:53;9.05;;;5.75;;
42084;SDS011;27746;52.228;20.890;2023-04-01T09:24:34;9.93;;;5.18;;
42084;SDS011;27746;52.228;20.890;2023-04-01T09:27:09;10.18;;;5.28;;
42084;SDS011;27746;52.228;20.890;2023-04-01T09:29:52;9.07;;;4.75;;
42084;SDS011;27746;52.228;20.890;2023-04-01T09:32:51;7.72;;;4.88;;
42084;SDS011;27746;52.228;20.890;2023-04-01T09:35:38;6.57;;;4.53;;
42084;SDS011;27746;52.228;20.890;2023-04-01T09:38:21;7.82;;;5.00;;
42084;SDS011;27746;52.228;20.890;2023-04-01T09:40:53;7.45;;;5.13;;
42084;SDS011;27746;52.228;20.890;2023-04-01T09:43:26;7.85;;;4.35;;
42084;SDS011;27746;52.228;20.890;2023-04-01T09:48:52;11.82;;;5.70;;
42084;SDS011;27746;52.228;20.890;2023-04-01T09:51:36;10.27;;;5.35;;
42084;SDS011;27746;52.228;20.890;2023-04-01T09:54:20;7.72;;;5.15;;
42084;SDS011;27746;52.228;20.890;2023-04-01T10:06:05;8.00;;;4.90;;
42084;SDS011;27746;52.228;20.890;2023-04-01T10:09:08;9.30;;;5.57;;
42084;SDS011;27746;52.228;20.890;2023-04-01T10:12:24;8.43;;;5.13;;
42084;SDS011;27746;52.228;20.890;2023-04-01T10:15:29;10.10;;;5.32;;
42084;SDS011;27746;52.228;20.890;2023-04-01T10:24:30;7.65;;;4.78;;
42084;SDS011;27746;52.228;20.890;2023-04-01T10:27:24;8.63;;;5.30;;
42084;SDS011;27746;52.228;20.890;2023-04-01T10:39:35;9.65;;;5.70;;
42084;SDS011;27746;52.228;20.890;2023-04-01T10:45:42;8.57;;;5.50;;
42084;SDS011;27746;52.228;20.890;2023-04-01T10:48:43;9.52;;;5.22;;
42084;SDS011;27746;52.228;20.890;2023-04-01T10:51:54;7.75;;;4.50;;
42084;SDS011;27746;52.228;20.890;2023-04-01T10:55:02;7.70;;;4.75;;
42084;SDS011;27746;52.228;20.890;2023-04-01T10:58:16;7.05;;;4.88;;
42084;SDS011;27746;52.228;20.890;2023-04-01T11:01:07;7.55;;;5.38;;
42084;SDS011;27746;52.228;20.890;2023-04-01T11:07:16;7.72;;;5.18;;
42084;SDS011;27746;52.228;20.890;2023-04-01T11:13:15;8.65;;;5.53;;
42084;SDS011;27746;52.228;20.890;2023-04-01T11:16:09;9.82;;;6.07;;
42084;SDS011;27746;52.228;20.890;2023-04-01T11:25:09;11.23;;;6.40;;
42084;SDS011;27746;52.228;20.890;2023-04-01T11:28:01;11.40;;;6.60;;
42084;SDS011;27746;52.228;20.890;2023-04-01T11:30:56;13.52;;;8.63;;
42084;SDS011;27746;52.228;20.890;2023-04-01T11:33:31;11.45;;;7.53;;
42084;SDS011;27746;52.228;20.890;2023-04-01T11:36:07;8.32;;;5.85;;
42084;SDS011;27746;52.228;20.890;2023-04-01T11:38:54;8.50;;;5.78;;
42084;SDS011;27746;52.228;20.890;2023-04-01T11:41:29;7.95;;;4.72;;
42084;SDS011;27746;52.228;20.890;2023-04-01T11:44:15;7.65;;;4.57;;
42084;SDS011;27746;52.228;20.890;2023-04-01T11:46:50;6.68;;;4.00;;
42084;SDS011;27746;52.228;20.890;2023-04-01T11:49:29;6.32;;;4.00;;
42084;SDS011;27746;52.228;20.890;2023-04-01T11:52:20;6.05;;;3.63;;
42084;SDS011;27746;52.228;20.890;2023-04-01T11:55:28;4.30;;;2.58;;
42084;SDS011;27746;52.228;20.890;2023-04-01T12:01:09;4.18;;;2.33;;
42084;SDS011;27746;52.228;20.890;2023-04-01T12:06:59;4.25;;;2.60;;
42084;SDS011;27746;52.228;20.890;2023-04-01T12:09:34;5.50;;;3.03;;
42084;SDS011;27746;52.228;20.890;2023-04-01T12:12:16;5.60;;;3.47;;
42084;SDS011;27746;52.228;20.890;2023-04-01T12:14:54;11.15;;;6.88;;
42084;SDS011;27746;52.228;20.890;2023-04-01T12:17:34;6.78;;;4.32;;
42084;SDS011;27746;52.228;20.890;2023-04-01T12:20:21;7.07;;;4.55;;
42084;SDS011;27746;52.228;20.890;2023-04-01T12:22:57;6.13;;;4.35;;
42084;SDS011;27746;52.228;20.890;2023-04-01T12:25:51;8.13;;;5.32;;
42084;SDS011;27746;52.228;20.890;2023-04-01T12:28:47;7.30;;;4.63;;
42084;SDS011;27746;52.228;20.890;2023-04-01T12:31:27;6.97;;;4.30;;
42084;SDS011;27746;52.228;20.890;2023-04-01T12:37:02;7.32;;;4.85;;
42084;SDS011;27746;52.228;20.890;2023-04-01T12:39:39;6.95;;;4.57;;
42084;SDS011;27746;52.228;20.890;2023-04-01T12:42:27;6.20;;;3.97;;
42084;SDS011;27746;52.228;20.890;2023-04-01T12:45:17;6.03;;;4.15;;
42084;SDS011;27746;52.228;20.890;2023-04-01T12:48:00;5.63;;;3.80;;
42084;SDS011;27746;52.228;20.890;2023-04-01T12:51:06;6.18;;;3.45;;
42084;SDS011;27746;52.228;20.890;2023-04-01T12:56:50;5.93;;;3.88;;
42084;SDS011;27746;52.228;20.890;2023-04-01T12:59:32;7.72;;;4.70;;
42084;SDS011;27746;52.228;20.890;2023-04-01T13:02:18;6.53;;;4.32;;
42084;SDS011;27746;52.228;20.890;2023-04-01T13:05:01;8.02;;;4.70;;
42084;SDS011;27746;52.228;20.890;2023-04-01T13:08:01;6.38;;;4.70;;
42084;SDS011;27746;52.228;20.890;2023-04-01T13:10:38;7.40;;;5.20;;
42084;SDS011;27746;52.228;20.890;2023-04-01T13:13:27;6.45;;;4.57;;
42084;SDS011;27746;52.228;20.890;2023-04-01T13:16:16;4.13;;;3.15;;
42084;SDS011;27746;52.228;20.890;2023-04-01T13:18:53;6.70;;;2.38;;
42084;SDS011;27746;52.228;20.890;2023-04-01T13:21:28;5.22;;;2.28;;
42084;SDS011;27746;52.228;20.890;2023-04-01T13:24:07;3.42;;;2.30;;
42084;SDS011;27746;52.228;20.890;2023-04-01T13:26:48;3.42;;;2.40;;
42084;SDS011;27746;52.228;20.890;2023-04-01T13:29:23;5.38;;;2.15;;
42084;SDS011;27746;52.228;20.890;2023-04-01T13:32:02;4.63;;;2.28;;
42084;SDS011;27746;52.228;20.890;2023-04-01T13:34:46;3.88;;;2.50;;
42084;SDS011;27746;52.228;20.890;2023-04-01T13:37:25;4.65;;;2.65;;
42084;SDS011;27746;52.228;20.890;2023-04-01T13:43:02;4.00;;;2.80;;
42084;SDS011;27746;52.228;20.890;2023-04-01T13:45:37;4.45;;;2.78;;
42084;SDS011;27746;52.228;20.890;2023-04-01T13:48:23;3.80;;;2.10;;
42084;SDS011;27746;52.228;20.890;2023-04-01T13:51:01;4.20;;;2.23;;
42084;SDS011;27746;52.228;20.890;2023-04-01T13:53:49;4.15;;;2.42;;
42084;SDS011;27746;52.228;20.890;2023-04-01T13:56:42;7.15;;;2.67;;
42084;SDS011;27746;52.228;20.890;2023-04-01T13:59:36;5.55;;;2.53;;
42084;SDS011;27746;52.228;20.890;2023-04-01T14:02:35;6.20;;;3.08;;
42084;SDS011;27746;52.228;20.890;2023-04-01T14:08:08;5.25;;;2.60;;
42084;SDS011;27746;52.228;20.890;2023-04-01T14:10:48;6.45;;;2.90;;
42084;SDS011;27746;52.228;20.890;2023-04-01T14:13:26;5.43;;;3.33;;
42084;SDS011;27746;52.228;20.890;2023-04-01T14:16:04;6.03;;;2.72;;
42084;SDS011;27746;52.228;20.890;2023-04-01T14:18:50;6.78;;;3.28;;
42084;SDS011;27746;52.228;20.890;2023-04-01T14:21:27;4.47;;;3.03;;
42084;SDS011;27746;52.228;20.890;2023-04-01T14:24:14;6.82;;;3.97;;
42084;SDS011;27746;52.228;20.890;2023-04-01T14:26:56;5.95;;;3.70;;
42084;SDS011;27746;52.228;20.890;2023-04-01T14:29:50;4.85;;;2.70;;
42084;SDS011;27746;52.228;20.890;2023-04-01T14:32:26;6.78;;;3.20;;
42084;SDS011;27746;52.228;20.890;2023-04-01T14:35:19;5.97;;;3.20;;
42084;SDS011;27746;52.228;20.890;2023-04-01T14:38:05;4.97;;;2.58;;
42084;SDS011;27746;52.228;20.890;2023-04-01T14:40:56;5.05;;;3.15;;
42084;SDS011;27746;52.228;20.890;2023-04-01T14:49:15;6.20;;;2.83;;
42084;SDS011;27746;52.228;20.890;2023-04-01T14:51:48;4.63;;;2.75;;
42084;SDS011;27746;52.228;20.890;2023-04-01T14:54:16;4.72;;;2.70;;
42084;SDS011;27746;52.228;20.890;2023-04-01T14:56:48;3.83;;;2.43;;
42084;SDS011;27746;52.228;20.890;2023-04-01T14:59:17;4.55;;;2.70;;
42084;SDS011;27746;52.228;20.890;2023-04-01T15:01:58;6.00;;;2.45;;
42084;SDS011;27746;52.228;20.890;2023-04-01T15:04:37;13.07;;;7.68;;
42084;SDS011;27746;52.228;20.890;2023-04-01T15:07:20;5.82;;;3.72;;
42084;SDS011;27746;52.228;20.890;2023-04-01T15:10:09;6.28;;;3.53;;
42084;SDS011;27746;52.228;20.890;2023-04-01T15:12:57;7.07;;;4.10;;
42084;SDS011;27746;52.228;20.890;2023-04-01T15:15:35;6.90;;;3.70;;
42084;SDS011;27746;52.228;20.890;2023-04-01T15:18:13;5.80;;;3.40;;
42084;SDS011;27746;52.228;20.890;2023-04-01T15:20:48;7.95;;;3.53;;
42084;SDS011;27746;52.228;20.890;2023-04-01T15:23:34;5.53;;;3.58;;
42084;SDS011;27746;52.228;20.890;2023-04-01T15:26:13;6.53;;;3.53;;
42084;SDS011;27746;52.228;20.890;2023-04-01T15:28:55;6.68;;;4.32;;
42084;SDS011;27746;52.228;20.890;2023-04-01T15:31:31;6.85;;;3.53;;
42084;SDS011;27746;52.228;20.890;2023-04-01T15:34:19;7.15;;;4.05;;
42084;SDS011;27746;52.228;20.890;2023-04-01T15:37:00;8.95;;;4.43;;
42084;SDS011;27746;52.228;20.890;2023-04-01T15:42:13;7.28;;;3.60;;
42084;SDS011;27746;52.228;20.890;2023-04-01T15:44:55;8.65;;;3.65;;
42084;SDS011;27746;52.228;20.890;2023-04-01T15:47:36;5.03;;;2.97;;
42084;SDS011;27746;52.228;20.890;2023-04-01T15:50:17;5.63;;;2.80;;
42084;SDS011;27746;52.228;20.890;2023-04-01T15:52:57;7.03;;;3.20;;
42084;SDS011;27746;52.228;20.890;2023-04-01T15:55:32;5.15;;;2.60;;
42084;SDS011;27746;52.228;20.890;2023-04-01T15:58:15;4.93;;;2.25;;
42084;SDS011;27746;52.228;20.890;2023-04-01T16:00:54;4.32;;;2.83;;
42084;SDS011;27746;52.228;20.890;2023-04-01T16:03:33;4.80;;;2.40;;
42084;SDS011;27746;52.228;20.890;2023-04-01T16:06:30;5.10;;;2.88;;
42084;SDS011;27746;52.228;20.890;2023-04-01T16:09:21;8.25;;;2.63;;
42084;SDS011;27746;52.228;20.890;2023-04-01T16:12:00;5.22;;;3.00;;
42084;SDS011;27746;52.228;20.890;2023-04-01T16:14:36;4.57;;;3.00;;
42084;SDS011;27746;52.228;20.890;2023-04-01T16:17:18;6.93;;;3.15;;
42084;SDS011;27746;52.228;20.890;2023-04-01T16:19:59;5.15;;;3.17;;
42084;SDS011;27746;52.228;20.890;2023-04-01T16:22:35;5.28;;;2.90;;
42084;SDS011;27746;52.228;20.890;2023-04-01T16:25:14;11.15;;;4.22;;
42084;SDS011;27746;52.228;20.890;2023-04-01T16:27:47;7.68;;;4.97;;
42084;SDS011;27746;52.228;20.890;2023-04-01T16:30:32;7.60;;;4.30;;
42084;SDS011;27746;52.228;20.890;2023-04-01T16:33:03;5.72;;;3.97;;
42084;SDS011;27746;52.228;20.890;2023-04-01T16:35:41;6.15;;;2.95;;
42084;SDS011;27746;52.228;20.890;2023-04-01T16:38:15;4.93;;;2.80;;
42084;SDS011;27746;52.228;20.890;2023-04-01T16:40:47;4.80;;;3.22;;
42084;SDS011;27746;52.228;20.890;2023-04-01T16:43:25;5.78;;;3.45;;
42084;SDS011;27746;52.228;20.890;2023-04-01T16:46:06;6.07;;;3.20;;
42084;SDS011;27746;52.228;20.890;2023-04-01T16:48:57;6.90;;;2.95;;
42084;SDS011;27746;52.228;20.890;2023-04-01T16:51:31;6.30;;;3.72;;